Saturday, January 20, 2018, 8:18 AM EST
Back to Local

KPHD, New Philadelphia Clever Fld

Location: New Philadelphia, OH, United States Lat: 40.467
Local Time: 8:18 AM EST (13:18 GMT) Lon: -81.417
Time Zone: US/Eastern Elev: 895 ft

Show me the last for .
Show Decoded

2018-01-20 07:53 METAR KPHD 201253Z AUTO 21003KT 10SM CLR 02/M05 A3002 RMK AO2 SLP175 T00171050 =
2018-01-20 06:53 METAR KPHD 201153Z AUTO 21004KT 10SM CLR 01/M06 A3002 RMK AO2 SLP173 T00111056
                 10022 20011 51011 =
2018-01-20 05:53 METAR KPHD 201053Z AUTO 21006KT 10SM CLR 01/M06 A3000 RMK AO2 SLP168 T00111056 =
2018-01-20 04:53 METAR KPHD 200953Z AUTO 20008G14KT 170V240 10SM CLR 02/M06 A3000 RMK AO2 SLP166
                 T00171056 =
2018-01-20 03:53 METAR KPHD 200853Z AUTO 20009KT 10SM CLR 02/M06 A2999 RMK AO2 SLP161 T00221061
                 50007 =
2018-01-20 01:53 METAR KPHD 200653Z AUTO 20011G16KT 10SM CLR 02/M07 A2997 RMK AO2 SLP155
                 T00171072 =
2018-01-20 00:53 METAR KPHD 200553Z AUTO 20010G16KT 170V260 10SM CLR 01/M08 A2996 RMK AO2 SLP155
                 T00111078 10022 20011 58009 =
2018-01-19 23:53 METAR KPHD 200453Z AUTO 18005KT 10SM CLR 01/M08 A2997 RMK AO2 SLP157 T00111078
                 400391072 =
2018-01-19 22:53 METAR KPHD 200353Z AUTO VRB06KT 10SM CLR 02/M08 A2999 RMK AO2 SLP166 T00171083 =
2018-01-19 21:53 METAR KPHD 200253Z AUTO 19007KT 150V210 10SM CLR 02/M09 A2999 RMK AO2 SLP166
                 T00171089 58008 =
2018-01-19 20:53 METAR KPHD 200153Z AUTO 18005KT 10SM CLR 02/M09 A3000 RMK AO2 SLP169 T00171089 =
2018-01-19 19:53 METAR KPHD 200053Z AUTO 18005KT 10SM CLR 02/M08 A3001 RMK AO2 SLP174 T00171083 =
2018-01-19 18:53 METAR KPHD 192353Z AUTO 17005KT 10SM CLR 02/M08 A3002 RMK AO2 SLP176 T00171083
                 10039 20011 50001 =
2018-01-19 17:53 METAR KPHD 192253Z AUTO 18005KT 10SM CLR 03/M08 A3002 RMK AO2 SLP175 T00331083 =
2018-01-19 16:53 METAR KPHD 192153Z AUTO 18008KT 10SM CLR 04/M08 A3002 RMK AO2 SLP175 T00391083 =
2018-01-19 15:53 METAR KPHD 192053Z AUTO 22009G15KT 10SM CLR 04/M08 A3001 RMK AO2 SLP173
                 T00391083 56018 =
2018-01-19 14:53 METAR KPHD 191953Z AUTO VRB05KT 10SM CLR 03/M08 A3001 RMK AO2 SLP173 T00281083 =
2018-01-19 13:53 METAR KPHD 191853Z AUTO 20006KT 10SM CLR 02/M09 A3004 RMK AO2 SLP181 T00221089 =
2018-01-19 12:53 METAR KPHD 191753Z AUTO 21007KT 170V260 10SM CLR 01/M09 A3007 RMK AO2 SLP193
                 T00111094 10011 21072 58021 =
2018-01-19 11:53 METAR KPHD 191653Z AUTO 23006KT 10SM CLR M01/M10 A3010 RMK AO2 SLP203 T10061100
                 =
2018-01-19 10:53 METAR KPHD 191553Z AUTO 22007G15KT 180V260 10SM CLR M02/M11 A3012 RMK AO2 SLP210
                 T10221111 =
2018-01-19 09:53 METAR KPHD 191453Z AUTO 20006KT 10SM CLR M04/M12 A3013 RMK AO2 SLP216 T10391117
                 51001 =
2018-01-19 08:53 METAR KPHD 191353Z AUTO VRB05KT 10SM CLR M06/M12 A3013 RMK AO2 SLP214 T10561122
                 =

Support USWX by starting your Amazon purchase here.